createdAt,value
2019-04-27T00:03:06.984Z,100907.70
2019-04-27T00:08:19.989Z,100906.73
2019-04-27T00:13:23.008Z,100895.68
2019-04-27T00:18:35.948Z,100887.92
2019-04-27T00:23:40.249Z,100891.06
2019-04-27T00:28:43.440Z,100892.13
2019-04-27T00:33:46.723Z,100895.57
2019-04-27T01:36:59.533Z,100826.03
2019-04-27T02:50:55.187Z,100796.03
2019-04-27T03:04:15.770Z,100804.13
2019-04-27T05:57:53.299Z,100759.97
2019-04-27T06:46:56.450Z,100729.73
2019-04-27T06:52:00.037Z,100723.75
2019-04-27T06:57:04.744Z,100727.92
2019-04-27T07:02:08.714Z,100718.14
2019-04-27T07:07:12.210Z,100721.41
2019-04-27T07:12:15.541Z,100723.42
2019-04-27T07:17:19.106Z,100722.75
2019-04-27T07:22:22.704Z,100716.81
2019-04-27T07:27:26.401Z,100708.88
2019-04-27T07:32:29.702Z,100708.53
2019-04-27T07:37:33.050Z,100711.69
2019-04-27T07:42:35.762Z,100706.62
2019-04-27T07:47:42.533Z,100700.90
2019-04-27T07:52:45.458Z,100697.78
2019-04-27T07:57:49.508Z,100688.61
2019-04-27T08:02:52.489Z,100701.56
2019-04-27T08:07:55.044Z,100696.80
2019-04-27T08:12:59.771Z,100688.88
2019-04-27T08:18:02.688Z,100686.84
2019-04-27T08:23:05.955Z,100690.19
2019-04-27T08:28:31.573Z,100686.98
2019-04-27T08:33:35.142Z,100687.81
2019-04-27T08:38:39.006Z,100687.45
2019-04-27T08:43:42.529Z,100683.36
2019-04-27T08:48:46.034Z,100681.64
2019-04-27T08:53:50.140Z,100682.30
2019-04-27T08:58:53.933Z,100687.61
2019-04-27T09:03:57.227Z,100677.14
2019-04-27T09:09:07.136Z,100675.80
2019-04-27T09:14:29.658Z,100678.47
2019-04-27T09:19:56.249Z,100678.22
2019-04-27T09:24:59.575Z,100674.02
2019-04-27T09:30:04.167Z,100673.93
2019-04-27T09:35:08.050Z,100665.04
2019-04-27T09:40:11.569Z,100665.48
2019-04-27T09:45:16.183Z,100663.92
2019-04-27T09:50:19.643Z,100658.32
2019-04-27T09:55:22.982Z,100661.29
2019-04-27T10:00:27.783Z,100655.26
2019-04-27T10:05:31.140Z,100648.77
2019-04-27T10:10:34.620Z,100652.30
2019-04-27T10:15:37.503Z,100636.66
2019-04-27T10:20:41.135Z,100645.08
2019-04-27T10:25:45.782Z,100648.05
2019-04-27T10:30:48.764Z,100628.56
2019-04-27T10:35:56.442Z,100638.83
2019-04-27T10:40:59.239Z,100632.38
2019-04-27T10:46:02.703Z,100635.18
2019-04-27T10:51:07.351Z,100614.20
2019-04-27T10:56:11.018Z,100608.89
2019-04-27T11:01:15.617Z,100618.56
2019-04-27T11:06:38.183Z,100619.16
2019-04-27T11:11:41.557Z,100612.72
2019-04-27T11:16:45.772Z,100605.77
2019-04-27T11:21:49.462Z,100607.41
2019-04-27T11:26:52.697Z,100600.05
2019-04-27T11:31:55.965Z,100602.03
2019-04-27T11:37:05.565Z,100597.59
2019-04-27T11:42:08.475Z,100600.48
2019-04-27T11:47:11.526Z,100593.25
2019-04-27T11:52:15.760Z,100588.06
2019-04-27T11:57:19.098Z,100581.81
2019-04-27T12:02:22.434Z,100591.63
2019-04-27T12:07:26.058Z,100588.20
2019-04-27T12:12:29.074Z,100597.60
2019-04-27T12:17:32.038Z,100593.53
2019-04-27T12:22:35.207Z,100581.50
2019-04-27T12:28:02.865Z,100577.10
2019-04-27T12:33:05.492Z,100572.43
2019-04-27T12:38:08.652Z,100568.95
2019-04-27T12:43:11.468Z,100561.11
2019-04-27T12:48:13.628Z,100555.10
2019-04-27T12:53:26.696Z,100551.77
2019-04-27T12:58:44.091Z,100562.17
2019-04-27T13:03:46.929Z,100554.47
2019-04-27T13:08:50.562Z,100557.05
2019-04-27T13:13:57.203Z,100546.27
2019-04-27T13:18:58.811Z,100541.06
2019-04-27T13:24:04.550Z,100539.84
2019-04-27T13:29:07.195Z,100531.85
2019-04-27T13:34:10.399Z,100539.56
2019-04-27T13:39:15.734Z,100544.52
2019-04-27T13:44:19.105Z,100531.86
2019-04-27T13:49:53.633Z,100534.88
2019-04-27T13:54:56.919Z,100529.76
2019-04-27T14:00:01.211Z,100514.77
2019-04-27T14:05:05.579Z,100516.75
2019-04-27T14:10:09.395Z,100519.92
2019-04-27T14:15:12.841Z,100508.53
2019-04-27T14:20:15.726Z,100503.62
2019-04-27T14:25:18.341Z,100502.70
2019-04-27T14:30:21.230Z,100500.12
2019-04-27T14:35:24.849Z,100505.14
2019-04-27T14:40:28.828Z,100500.75
2019-04-27T14:45:32.196Z,100518.24
2019-04-27T14:50:35.722Z,100526.20
2019-04-27T14:55:38.760Z,100532.88
2019-04-27T15:00:42.214Z,100550.23
2019-04-27T15:05:45.410Z,100551.19
2019-04-27T15:10:50.095Z,100556.80
2019-04-27T15:15:52.709Z,100558.37
2019-04-27T15:20:58.449Z,100557.16
2019-04-27T15:26:00.497Z,100584.21
2019-04-27T15:31:26.366Z,100583.97
2019-04-27T15:36:45.255Z,100595.70
2019-04-27T15:41:52.093Z,100615.47
2019-04-27T15:46:55.638Z,100619.53
2019-04-27T15:52:00.177Z,100636.47
2019-04-27T15:57:05.704Z,100648.36
2019-04-27T16:02:15.105Z,100654.78
2019-04-27T16:07:18.154Z,100662.03
2019-04-27T16:12:20.096Z,100667.27
2019-04-27T16:17:23.707Z,100666.42
2019-04-27T16:22:26.906Z,100672.75
2019-04-27T16:27:34.153Z,100668.42
2019-04-27T16:32:36.209Z,100666.73
2019-04-27T16:37:58.082Z,100662.33
2019-04-27T16:43:03.275Z,100666.06
2019-04-27T16:48:06.295Z,100683.22
2019-04-27T16:53:12.409Z,100681.29
2019-04-27T16:58:15.944Z,100698.27
2019-04-27T17:03:20.400Z,100698.94
2019-04-27T17:08:26.571Z,100695.94
2019-04-27T17:13:30.645Z,100688.12
2019-04-27T17:18:39.418Z,100679.83
2019-04-27T17:23:42.663Z,100674.79
2019-04-27T17:28:53.366Z,100676.42
2019-04-27T17:34:01.226Z,100690.77
2019-04-27T17:39:08.339Z,100698.39
2019-04-27T17:44:12.667Z,100686.55
2019-04-27T17:49:15.524Z,100691.91
2019-04-27T17:54:18.496Z,100694.70
2019-04-27T17:59:23.128Z,100690.38
2019-04-27T18:04:26.027Z,100700.08
2019-04-27T18:09:29.072Z,100705.94
2019-04-27T18:14:32.768Z,100705.56
2019-04-27T18:19:44.227Z,100706.66
2019-04-27T18:25:06.227Z,100710.33
2019-04-27T18:30:28.878Z,100723.45
2019-04-27T18:35:33.985Z,100727.14
2019-04-27T18:40:40.101Z,100725.34
2019-04-27T18:45:45.030Z,100738.34
2019-04-27T18:51:05.239Z,100745.13
2019-04-27T18:56:10.406Z,100761.29
2019-04-27T19:01:13.937Z,100770.59
2019-04-27T19:06:18.743Z,100765.75
2019-04-27T19:11:22.562Z,100774.27
2019-04-27T19:16:26.267Z,100777.11
2019-04-27T19:21:29.587Z,100781.08
2019-04-27T19:26:55.174Z,100781.95
2019-04-27T19:32:00.309Z,100802.83
2019-04-27T19:37:03.241Z,100802.37
2019-04-27T19:42:06.224Z,100802.27
2019-04-27T19:47:10.455Z,100812.33
2019-04-27T19:52:13.880Z,100811.63
2019-04-27T19:57:31.155Z,100818.17
2019-04-27T20:02:22.766Z,100818.39
2019-04-27T20:07:28.422Z,100818.00
2019-04-27T20:12:34.517Z,100815.39
2019-04-27T20:17:37.867Z,100826.75
2019-04-27T20:22:43.494Z,100823.55
2019-04-27T20:27:49.527Z,100824.65
2019-04-27T20:32:52.071Z,100829.38
2019-04-27T20:37:55.382Z,100835.64
2019-04-27T20:42:58.690Z,100835.55
2019-04-27T20:48:01.968Z,100841.62
2019-04-27T20:53:08.362Z,100840.98
2019-04-27T20:58:12.747Z,100839.09
2019-04-27T21:03:34.961Z,100848.98
2019-04-27T21:08:41.145Z,100854.37
2019-04-27T21:13:44.456Z,100856.60
2019-04-27T21:18:47.689Z,100855.03
2019-04-27T21:23:51.540Z,100859.52
2019-04-27T21:28:55.247Z,100858.22
2019-04-27T21:33:58.636Z,100857.36
2019-04-27T21:39:01.854Z,100871.67
2019-04-27T21:44:06.279Z,100874.95
2019-04-27T21:49:11.189Z,100881.23
2019-04-27T21:54:21.098Z,100889.00
2019-04-27T21:59:24.523Z,100891.21
2019-04-27T22:04:28.041Z,100902.81
2019-04-27T22:09:31.062Z,100904.08
2019-04-27T22:14:34.704Z,100911.47
2019-04-27T22:19:37.903Z,100914.15
2019-04-27T22:24:42.876Z,100915.78
2019-04-27T22:29:46.135Z,100915.90
2019-04-27T22:34:49.871Z,100909.30
2019-04-27T22:40:11.988Z,100909.09
2019-04-27T22:45:22.199Z,100912.34
2019-04-27T22:50:25.825Z,100910.52
2019-04-27T22:55:28.802Z,100910.72
2019-04-27T23:00:51.269Z,100912.17
2019-04-27T23:05:55.101Z,100922.49
2019-04-27T23:10:58.556Z,100922.53
2019-04-27T23:16:03.198Z,100921.96
2019-04-27T23:21:06.368Z,100924.00
2019-04-27T23:26:11.966Z,100932.05
2019-04-27T23:31:31.892Z,100927.95
2019-04-27T23:36:35.261Z,100926.95
2019-04-27T23:41:39.468Z,100942.04
2019-04-27T23:46:42.774Z,100935.23
2019-04-27T23:51:53.837Z,100938.02
2019-04-27T23:56:56.863Z,100941.17
